Academy, Texas
Current Conditions -  °F | °C
As of 2:35 PM on Tuesday 21 Oct 2014 (Local Time) from KTPL Reporting Station
Clear Clear  
Wind Chill: 27°   Ceiling: Unl
Heat Index: 27°   Visibility: 10mi
Dew Point: 11°   Wind: 9mph
Humidity: 37%   Direction: 70°ENE
Pressure: 30.03"   Gusts: NA
Location:  30.9809°N, 97.3415°W
Report Text: KTPL 211935Z AUTO 07008KT 10SM CLR 27/11 A3003 RMK AO1
Loading
Personal Weather Stations






























Interactive Weather Map New forecast layout! Learn more

10-Day Weather Forecast

Advertisements
Track Severe Weather on mobile